createdAt,value
2023-02-15T00:01:56.971Z,7.70
2023-02-15T00:04:51.385Z,7.90
2023-02-15T00:07:21.320Z,7.90
2023-02-15T00:09:52.516Z,7.60
2023-02-15T00:12:21.560Z,7.80
2023-02-15T00:17:37.018Z,7.70
2023-02-15T00:20:06.547Z,7.50
2023-02-15T00:22:35.519Z,7.30
2023-02-15T00:25:06.581Z,7.40
2023-02-15T00:27:36.702Z,7.30
2023-02-15T00:30:07.291Z,7.20
2023-02-15T00:32:53.574Z,7.20
2023-02-15T00:35:22.685Z,7.50
2023-02-15T00:40:59.078Z,7.50
2023-02-15T00:43:28.556Z,8.00
2023-02-15T00:46:15.392Z,8.10
2023-02-15T00:49:01.621Z,7.80
2023-02-15T00:51:31.185Z,7.90
2023-02-15T00:54:00.175Z,7.90
2023-02-15T00:56:30.681Z,7.90
2023-02-15T00:59:00.274Z,8.10
2023-02-15T01:01:30.376Z,7.80
2023-02-15T01:03:59.571Z,7.90
2023-02-15T01:06:32.109Z,8.10
2023-02-15T01:09:19.629Z,8.30
2023-02-15T01:11:50.231Z,8.40
2023-02-15T01:14:19.501Z,8.50
2023-02-15T01:16:48.600Z,8.40
2023-02-15T01:19:17.600Z,8.40
2023-02-15T01:22:03.811Z,8.10
2023-02-15T01:24:32.963Z,7.60
2023-02-15T01:27:06.458Z,7.40
2023-02-15T01:29:35.556Z,7.10
2023-02-15T01:32:05.132Z,7.10
2023-02-15T01:34:34.321Z,7.10
2023-02-15T01:37:03.521Z,7.00
2023-02-15T01:39:32.471Z,7.10
2023-02-15T01:42:01.411Z,7.10
2023-02-15T01:45:09.781Z,7.20
2023-02-15T01:47:43.601Z,7.30
2023-02-15T01:50:18.111Z,7.10
2023-02-15T01:52:51.778Z,7.00
2023-02-15T01:55:22.138Z,7.30
2023-02-15T01:57:52.261Z,7.30
2023-02-15T02:00:23.448Z,7.40
2023-02-15T02:02:56.455Z,7.60
2023-02-15T02:08:15.093Z,7.60
2023-02-15T02:10:45.325Z,7.60
2023-02-15T02:13:15.666Z,7.40
2023-02-15T02:15:55.001Z,7.30
2023-02-15T02:18:51.277Z,7.50
2023-02-15T02:21:45.786Z,7.40
2023-02-15T02:24:53.157Z,7.50
2023-02-15T02:27:44.280Z,7.50
2023-02-15T02:30:46.480Z,7.10
2023-02-15T02:33:40.831Z,7.10
2023-02-15T02:36:19.018Z,6.80
2023-02-15T02:39:09.936Z,7.10
2023-02-15T02:41:46.859Z,7.10
2023-02-15T02:44:21.522Z,7.40
2023-02-15T02:46:55.372Z,7.30
2023-02-15T02:49:40.145Z,7.40
2023-02-15T02:52:30.164Z,7.30
2023-02-15T02:55:01.764Z,7.20
2023-02-15T02:57:32.867Z,7.00
2023-02-15T03:00:04.341Z,6.80
2023-02-15T03:02:37.260Z,6.80
2023-02-15T03:05:28.411Z,7.00
2023-02-15T03:07:59.317Z,7.10
2023-02-15T03:10:31.278Z,6.90
2023-02-15T03:13:00.368Z,7.20
2023-02-15T03:15:51.446Z,6.90
2023-02-15T03:18:42.755Z,6.70
2023-02-15T03:21:23.346Z,6.30
2023-02-15T03:24:16.306Z,6.40
2023-02-15T03:26:52.198Z,6.50
2023-02-15T03:29:24.143Z,6.20
2023-02-15T03:31:57.927Z,6.60
2023-02-15T03:34:44.686Z,6.60
2023-02-15T03:37:20.423Z,6.50
2023-02-15T03:39:55.543Z,6.30
2023-02-15T03:42:30.617Z,6.40
2023-02-15T03:47:53.375Z,6.50
2023-02-15T03:50:50.032Z,6.60
2023-02-15T03:53:24.034Z,6.80
2023-02-15T03:55:56.776Z,6.80
2023-02-15T03:58:44.434Z,6.70
2023-02-15T04:01:39.894Z,6.60
2023-02-15T04:04:13.401Z,6.30
2023-02-15T04:06:42.363Z,6.50
2023-02-15T04:09:47.197Z,6.20
2023-02-15T04:12:16.161Z,6.10
2023-02-15T04:15:03.935Z,6.10
2023-02-15T04:17:33.030Z,6.30
2023-02-15T04:20:19.061Z,6.60
2023-02-15T04:23:05.160Z,6.80
2023-02-15T04:25:34.214Z,6.80
2023-02-15T04:28:03.103Z,6.60
2023-02-15T04:30:33.447Z,6.80
2023-02-15T04:33:02.395Z,6.60
2023-02-15T04:35:32.873Z,6.50
2023-02-15T04:38:02.204Z,6.40
2023-02-15T04:40:31.242Z,6.60
2023-02-15T04:43:00.137Z,6.30
2023-02-15T04:45:29.719Z,6.40
2023-02-15T04:48:00.121Z,6.40
2023-02-15T04:50:29.057Z,6.50
2023-02-15T04:52:58.062Z,6.30
2023-02-15T04:55:28.097Z,6.30
2023-02-15T05:00:43.099Z,6.50
2023-02-15T05:03:13.506Z,6.60
2023-02-15T05:05:42.481Z,6.70
2023-02-15T05:08:11.410Z,6.50
2023-02-15T05:10:40.295Z,6.50
2023-02-15T05:13:09.259Z,6.40
2023-02-15T05:15:38.481Z,6.10
2023-02-15T05:18:08.418Z,5.90
2023-02-15T05:20:38.928Z,6.20
2023-02-15T05:23:25.127Z,6.10
2023-02-15T05:32:20.706Z,6.20
2023-02-15T05:35:08.806Z,6.50
2023-02-15T05:37:39.351Z,5.90
2023-02-15T05:40:10.105Z,5.80
2023-02-15T05:42:39.037Z,5.80
2023-02-15T05:45:09.190Z,5.70
2023-02-15T05:47:38.207Z,6.00
2023-02-15T05:50:08.664Z,5.80
2023-02-15T05:52:39.181Z,5.70
2023-02-15T05:55:26.026Z,5.20
2023-02-15T05:57:55.133Z,5.90
2023-02-15T06:00:24.534Z,5.90
2023-02-15T06:02:53.506Z,5.80
2023-02-15T06:05:22.626Z,5.50
2023-02-15T06:07:53.004Z,5.60
2023-02-15T06:10:22.165Z,5.60
2023-02-15T06:12:51.148Z,5.70
2023-02-15T06:15:38.947Z,5.70
2023-02-15T06:18:08.054Z,5.80
2023-02-15T06:20:37.492Z,6.20
2023-02-15T06:23:07.936Z,6.30
2023-02-15T06:25:39.712Z,6.30
2023-02-15T06:33:41.475Z,6.50
2023-02-15T06:36:10.548Z,6.60
2023-02-15T06:41:27.734Z,6.40
2023-02-15T06:46:42.961Z,6.20
2023-02-15T06:49:12.156Z,6.20
2023-02-15T06:51:41.108Z,6.20
2023-02-15T06:54:11.650Z,6.50
2023-02-15T06:56:40.612Z,6.70
2023-02-15T06:59:09.562Z,6.70
2023-02-15T07:01:55.864Z,6.60
2023-02-15T07:04:42.065Z,6.80
2023-02-15T07:07:12.586Z,6.70
2023-02-15T07:09:42.989Z,6.80
2023-02-15T07:12:29.088Z,6.80
2023-02-15T07:14:59.337Z,6.90
2023-02-15T07:17:35.761Z,6.80
2023-02-15T07:20:25.500Z,7.20
2023-02-15T07:22:54.980Z,7.40
2023-02-15T07:25:25.396Z,7.80
2023-02-15T07:27:58.914Z,8.00
2023-02-15T07:30:28.067Z,8.20
2023-02-15T07:36:20.584Z,8.50
2023-02-15T07:38:49.611Z,8.90
2023-02-15T07:41:38.440Z,8.70
2023-02-15T07:44:32.636Z,8.70
2023-02-15T07:47:01.639Z,8.80
2023-02-15T07:49:31.778Z,9.00
2023-02-15T07:52:02.883Z,9.20
2023-02-15T07:54:32.038Z,9.40
2023-02-15T07:57:03.364Z,9.40
2023-02-15T07:59:32.610Z,9.60
2023-02-15T08:02:01.657Z,9.70
2023-02-15T08:04:30.647Z,10.00
2023-02-15T08:06:59.654Z,10.10
2023-02-15T08:09:28.644Z,10.20
2023-02-15T08:11:57.608Z,10.40
2023-02-15T08:14:29.767Z,10.50
2023-02-15T08:17:03.711Z,10.30
2023-02-15T08:19:35.750Z,10.40
2023-02-15T08:24:53.392Z,10.50
2023-02-15T08:27:27.854Z,10.80
2023-02-15T08:29:58.394Z,10.80
2023-02-15T08:32:27.671Z,10.60
2023-02-15T08:34:56.634Z,10.80
2023-02-15T08:37:26.959Z,10.70
2023-02-15T08:50:32.291Z,11.00
2023-02-15T08:55:30.518Z,11.60
2023-02-15T09:00:48.498Z,12.20
2023-02-15T09:03:17.574Z,11.90
2023-02-15T09:05:46.522Z,12.30
2023-02-15T09:08:15.826Z,12.40
2023-02-15T09:10:44.927Z,12.50
2023-02-15T09:13:14.400Z,12.60
2023-02-15T09:15:43.482Z,12.70
2023-02-15T09:18:18.206Z,12.80
2023-02-15T09:20:47.436Z,12.80
2023-02-15T09:23:26.813Z,13.00
2023-02-15T09:25:56.452Z,13.00
2023-02-15T09:28:25.519Z,13.00
2023-02-15T09:30:54.567Z,13.20
2023-02-15T09:33:26.454Z,13.30
2023-02-15T09:35:55.461Z,13.30
2023-02-15T09:38:24.460Z,13.20
2023-02-15T09:41:07.479Z,13.30
2023-02-15T09:43:45.428Z,13.60
2023-02-15T09:46:30.274Z,13.50
2023-02-15T09:49:30.147Z,13.60
2023-02-15T09:52:34.060Z,13.70
2023-02-15T09:55:36.373Z,13.70
2023-02-15T09:58:13.570Z,13.90
2023-02-15T10:00:50.732Z,13.50
2023-02-15T10:04:00.237Z,13.60
2023-02-15T10:06:43.332Z,13.90
2023-02-15T10:09:33.750Z,13.80
2023-02-15T10:12:30.785Z,13.80
2023-02-15T10:15:35.955Z,13.90
2023-02-15T10:18:25.731Z,14.20
2023-02-15T10:21:04.294Z,14.40
2023-02-15T10:24:18.193Z,14.70
2023-02-15T10:26:48.785Z,14.60
2023-02-15T10:29:30.096Z,14.90
2023-02-15T10:32:08.215Z,15.10
2023-02-15T10:34:41.352Z,14.70
2023-02-15T10:37:37.822Z,15.00
2023-02-15T10:43:27.542Z,14.70
2023-02-15T10:46:04.525Z,14.90
2023-02-15T10:48:47.274Z,15.40
2023-02-15T10:54:24.160Z,15.90
2023-02-15T10:57:04.565Z,15.70
2023-02-15T11:00:00.866Z,15.30
2023-02-15T11:02:59.400Z,15.80
2023-02-15T11:05:40.877Z,16.30
2023-02-15T11:08:12.656Z,16.40
2023-02-15T11:10:45.781Z,16.80
2023-02-15T11:13:19.274Z,16.70
2023-02-15T11:16:11.108Z,17.10
2023-02-15T11:19:02.792Z,16.50
2023-02-15T11:21:38.105Z,16.50
2023-02-15T11:30:01.787Z,17.00
2023-02-15T11:32:52.794Z,16.20
2023-02-15T11:35:27.973Z,16.30
2023-02-15T11:38:03.885Z,17.10
2023-02-15T11:40:35.516Z,17.20
2023-02-15T11:43:09.725Z,17.80
2023-02-15T11:45:42.849Z,17.10
2023-02-15T11:48:14.177Z,17.80
2023-02-15T11:50:44.931Z,17.80
2023-02-15T11:53:16.869Z,18.20
2023-02-15T11:55:48.064Z,18.30
2023-02-15T11:58:30.746Z,19.00
2023-02-15T12:01:05.383Z,18.50
2023-02-15T12:03:54.473Z,17.60
2023-02-15T12:06:27.752Z,17.50
2023-02-15T12:09:08.081Z,17.90
2023-02-15T12:11:40.110Z,19.40
2023-02-15T12:14:28.495Z,19.70
2023-02-15T12:19:46.667Z,18.20
2023-02-15T12:22:26.293Z,18.30
2023-02-15T12:25:25.205Z,18.70
2023-02-15T12:27:54.428Z,19.00
2023-02-15T12:30:30.947Z,19.70
2023-02-15T12:33:08.569Z,20.10
2023-02-15T12:35:39.128Z,19.10
2023-02-15T12:38:41.653Z,19.70
2023-02-15T12:41:27.644Z,19.60
2023-02-15T12:44:14.424Z,19.80
2023-02-15T12:46:45.790Z,20.20
2023-02-15T12:49:21.060Z,20.50
2023-02-15T12:51:52.502Z,20.70
2023-02-15T12:57:30.234Z,20.90
2023-02-15T13:02:50.959Z,20.90
2023-02-15T13:05:27.358Z,20.90
2023-02-15T13:07:59.424Z,20.70
2023-02-15T13:10:31.806Z,21.50
2023-02-15T13:13:04.043Z,20.50
2023-02-15T13:15:38.212Z,20.60
2023-02-15T13:18:12.512Z,21.10
2023-02-15T13:20:46.315Z,21.20
2023-02-15T13:23:30.078Z,22.00
2023-02-15T13:26:01.176Z,21.80
2023-02-15T13:28:42.274Z,21.40
2023-02-15T13:31:17.079Z,22.00
2023-02-15T13:34:12.092Z,22.20
2023-02-15T13:36:51.944Z,22.40
2023-02-15T13:39:56.078Z,20.90
2023-02-15T13:42:30.144Z,21.60
2023-02-15T13:45:32.983Z,22.00
2023-02-15T13:48:11.142Z,22.90
2023-02-15T13:51:03.951Z,22.60
2023-02-15T13:54:03.038Z,21.60
2023-02-15T13:56:42.852Z,22.00
2023-02-15T13:59:47.745Z,21.20
2023-02-15T14:02:51.166Z,21.00
2023-02-15T14:05:35.941Z,21.40
2023-02-15T14:08:14.377Z,21.70
2023-02-15T14:10:57.081Z,21.80
2023-02-15T14:14:01.724Z,21.90
2023-02-15T14:16:47.988Z,22.10
2023-02-15T14:19:46.936Z,22.10
2023-02-15T14:22:25.600Z,22.30
2023-02-15T14:25:08.178Z,21.60
2023-02-15T14:27:53.232Z,21.10
2023-02-15T14:30:43.437Z,21.60
2023-02-15T14:33:35.271Z,21.80
2023-02-15T14:36:07.907Z,22.10
2023-02-15T14:38:51.316Z,21.60
2023-02-15T14:44:16.086Z,21.00
2023-02-15T14:47:10.421Z,21.70
2023-02-15T14:49:41.952Z,20.30
2023-02-15T14:52:12.714Z,20.50
2023-02-15T14:55:01.642Z,20.40
2023-02-15T14:57:36.733Z,20.40
2023-02-15T15:00:41.606Z,21.00
2023-02-15T15:06:25.749Z,20.80
2023-02-15T15:09:00.734Z,21.30
2023-02-15T15:11:51.606Z,20.50
2023-02-15T15:14:58.157Z,20.50
2023-02-15T15:18:02.702Z,20.00
2023-02-15T15:20:51.892Z,20.00
2023-02-15T15:23:41.724Z,20.00
2023-02-15T15:26:34.639Z,19.60
2023-02-15T15:29:04.918Z,20.00
2023-02-15T15:31:47.746Z,20.40
2023-02-15T15:34:47.607Z,20.20
2023-02-15T15:37:49.363Z,20.10
2023-02-15T15:44:00.727Z,20.20
2023-02-15T15:47:03.277Z,21.10
2023-02-15T15:49:35.227Z,21.10
2023-02-15T15:52:13.295Z,20.90
2023-02-15T15:54:45.643Z,20.80
2023-02-15T15:57:36.340Z,21.00
2023-02-15T16:00:07.120Z,20.20
2023-02-15T16:03:11.999Z,19.90
2023-02-15T16:05:42.133Z,19.30
2023-02-15T16:08:11.238Z,18.20
2023-02-15T16:10:42.943Z,17.60
2023-02-15T16:13:16.337Z,17.30
2023-02-15T16:15:50.776Z,16.90
2023-02-15T16:18:21.754Z,16.70
2023-02-15T16:20:54.759Z,16.50
2023-02-15T16:24:06.872Z,16.40
2023-02-15T16:26:51.436Z,16.40
2023-02-15T16:29:28.542Z,16.50
2023-02-15T16:32:04.828Z,16.30
2023-02-15T16:34:34.823Z,16.30
2023-02-15T16:37:17.234Z,16.50
2023-02-15T16:39:49.257Z,16.50
2023-02-15T16:45:11.590Z,16.20
2023-02-15T16:50:34.407Z,15.60
2023-02-15T16:53:05.631Z,15.60
2023-02-15T16:55:57.070Z,15.70
2023-02-15T16:58:33.020Z,15.70
2023-02-15T17:01:05.395Z,15.70
2023-02-15T17:03:34.675Z,15.70
2023-02-15T17:06:05.950Z,15.60
2023-02-15T17:08:38.200Z,15.30
2023-02-15T17:11:19.499Z,15.20
2023-02-15T17:14:23.761Z,15.00
2023-02-15T17:16:55.558Z,15.00
2023-02-15T17:19:28.703Z,14.90
2023-02-15T17:22:00.502Z,14.90
2023-02-15T17:24:42.490Z,14.80
2023-02-15T17:27:18.140Z,14.70
2023-02-15T17:29:52.983Z,14.20
2023-02-15T17:32:23.997Z,14.00
2023-02-15T17:35:01.456Z,13.80
2023-02-15T17:37:34.590Z,13.80
2023-02-15T17:40:19.055Z,13.50
2023-02-15T17:42:48.271Z,13.40
2023-02-15T17:45:19.453Z,13.80
2023-02-15T17:47:50.870Z,13.20
2023-02-15T17:50:23.160Z,13.50
2023-02-15T17:53:10.291Z,13.10
2023-02-15T17:55:43.291Z,13.20
2023-02-15T17:58:14.323Z,13.20
2023-02-15T18:01:05.224Z,13.40
2023-02-15T18:04:00.526Z,13.10
2023-02-15T18:06:47.385Z,12.70
2023-02-15T18:09:35.399Z,12.70
2023-02-15T18:12:05.246Z,12.50
2023-02-15T18:14:34.380Z,12.30
2023-02-15T18:17:24.390Z,12.20
2023-02-15T18:19:54.436Z,12.30
2023-02-15T18:22:42.237Z,12.20
2023-02-15T18:25:16.955Z,11.90
2023-02-15T18:27:46.065Z,11.70
2023-02-15T18:30:34.754Z,11.70
2023-02-15T18:33:05.550Z,11.70
2023-02-15T18:35:35.399Z,11.70
2023-02-15T18:38:04.469Z,11.60
2023-02-15T18:40:33.571Z,11.70
2023-02-15T18:43:02.613Z,11.70
2023-02-15T18:45:33.400Z,11.70
2023-02-15T18:48:22.578Z,11.70
2023-02-15T18:50:52.608Z,11.60
2023-02-15T18:53:40.018Z,11.70
2023-02-15T18:56:14.396Z,11.80
2023-02-15T18:58:45.699Z,12.00
2023-02-15T19:01:18.118Z,12.00
2023-02-15T19:03:49.839Z,11.90
2023-02-15T19:09:07.713Z,11.70
2023-02-15T19:11:36.720Z,11.60
2023-02-15T19:14:30.004Z,11.70
2023-02-15T19:17:00.426Z,11.60
2023-02-15T19:19:31.148Z,11.70
2023-02-15T19:22:00.271Z,11.40
2023-02-15T19:24:37.932Z,11.50
2023-02-15T19:27:08.549Z,11.40
2023-02-15T19:32:24.692Z,11.20
2023-02-15T19:37:43.509Z,10.80
2023-02-15T19:40:22.393Z,10.80
2023-02-15T19:42:51.869Z,10.70
2023-02-15T19:48:09.433Z,11.20
2023-02-15T19:50:57.249Z,11.10
2023-02-15T19:53:28.012Z,10.80
2023-02-15T19:55:57.203Z,10.80
2023-02-15T19:58:26.497Z,10.80
2023-02-15T20:00:55.681Z,10.60
2023-02-15T20:03:43.081Z,10.70
2023-02-15T20:06:16.242Z,10.70
2023-02-15T20:08:46.229Z,10.40
2023-02-15T20:11:15.907Z,10.10
2023-02-15T20:13:44.970Z,10.10
2023-02-15T20:16:14.126Z,10.00
2023-02-15T20:19:00.770Z,9.90
2023-02-15T20:21:31.612Z,10.00
2023-02-15T20:24:02.815Z,9.60
2023-02-15T20:26:33.434Z,9.60
2023-02-15T20:29:03.439Z,9.70
2023-02-15T20:31:33.222Z,9.70
2023-02-15T20:34:02.361Z,9.70
2023-02-15T20:36:33.397Z,9.80
2023-02-15T20:39:22.474Z,9.80
2023-02-15T20:41:51.429Z,9.80
2023-02-15T20:44:23.701Z,9.80
2023-02-15T20:46:54.821Z,9.60
2023-02-15T20:49:25.334Z,9.50
2023-02-15T20:51:57.233Z,9.40
2023-02-15T20:54:28.313Z,9.70
2023-02-15T20:56:57.573Z,9.60
2023-02-15T20:59:28.621Z,9.40
2023-02-15T21:02:00.735Z,9.60
2023-02-15T21:04:50.344Z,9.70
2023-02-15T21:07:22.259Z,9.70
2023-02-15T21:09:52.658Z,9.80
2023-02-15T21:12:22.877Z,9.60
2023-02-15T21:15:27.872Z,9.40
2023-02-15T21:17:58.397Z,9.40
2023-02-15T21:20:28.485Z,9.50
2023-02-15T21:25:46.922Z,9.50
2023-02-15T21:28:21.612Z,9.30
2023-02-15T21:31:09.625Z,9.40
2023-02-15T21:33:38.699Z,9.60
2023-02-15T21:36:14.509Z,9.40
2023-02-15T21:38:46.842Z,8.80
2023-02-15T21:41:36.302Z,8.80
2023-02-15T21:44:38.914Z,9.10
2023-02-15T21:47:28.065Z,9.20
2023-02-15T21:53:01.097Z,9.30
2023-02-15T21:55:32.814Z,9.00
2023-02-15T21:58:02.000Z,9.10
2023-02-15T22:00:32.928Z,9.20
2023-02-15T22:03:02.714Z,8.90
2023-02-15T22:05:33.442Z,9.00
2023-02-15T22:08:21.374Z,9.00
2023-02-15T22:10:51.922Z,9.20
2023-02-15T22:13:28.783Z,8.80
2023-02-15T22:15:58.468Z,8.90
2023-02-15T22:18:30.791Z,8.60
2023-02-15T22:21:01.497Z,8.60
2023-02-15T22:23:30.867Z,8.90
2023-02-15T22:26:05.404Z,8.80
2023-02-15T22:28:36.294Z,8.80
2023-02-15T22:31:08.344Z,8.80
2023-02-15T22:33:37.486Z,9.20
2023-02-15T22:36:06.858Z,8.90
2023-02-15T22:38:35.954Z,9.10
2023-02-15T22:41:06.920Z,8.80
2023-02-15T22:43:39.501Z,8.90
2023-02-15T22:46:15.183Z,9.10
2023-02-15T22:48:44.974Z,9.10
2023-02-15T22:54:22.217Z,9.00
2023-02-15T22:56:54.839Z,9.00
2023-02-15T22:59:29.030Z,9.00
2023-02-15T23:01:58.665Z,8.90
2023-02-15T23:04:29.696Z,9.00
2023-02-15T23:07:01.196Z,8.90
2023-02-15T23:09:30.319Z,8.90
2023-02-15T23:12:00.782Z,8.90
2023-02-15T23:14:35.782Z,9.00
2023-02-15T23:17:04.916Z,9.30
2023-02-15T23:19:33.959Z,8.80
2023-02-15T23:22:03.005Z,8.50
2023-02-15T23:24:54.273Z,8.60
2023-02-15T23:27:42.189Z,8.70
2023-02-15T23:36:10.693Z,8.90
2023-02-15T23:38:39.819Z,8.80
2023-02-15T23:41:20.914Z,8.70
2023-02-15T23:43:55.085Z,7.90
2023-02-15T23:46:34.997Z,8.80
2023-02-15T23:49:15.160Z,8.90
2023-02-15T23:51:45.463Z,8.80
2023-02-15T23:54:15.165Z,8.90
2023-02-15T23:57:03.830Z,8.80
2023-02-15T23:59:34.594Z,8.70
